Flight Track Log - Related Links

Times and Time Zones

All times are in EDT time to prevent confusion due to time zone crossing. See the DAL268 flight status page for this flight to view local times or setup timezone preferences in your user account.

Time Position Orientation Groundspeed Altitude Reporting Facility
EDT Latitude Longitude Course Direction KTS km/h feet Rate Location/Type
Fri 18:33:01 33.6333 -84.3667 64° Northeast 195 360 2.500  Level Atlanta TRACON
Fri 18:34:01 33.6333 -84.2833 90° East 262 486 4.400 2.400 Climbing Atlanta TRACON
Fri 18:35:00 33.7145 -84.0199 101° East  Level FlightAware Approximate
Fri 18:35:01 33.6333 -84.2000 90° East 279 517 7.300  Level Atlanta TRACON
Fri 18:35:41 33.6294 -84.1211 93° East 282 523 8.900 1.980 Climbing Atlanta Center
Fri 18:36:00 33.6922 -83.8859 101° East  Level FlightAware Approximate
Fri 18:36:41 33.6378 -84.0189 84° East 314 581 10.600  Level Atlanta Center
Fri 18:37:00 33.6698 -83.7519 101° East  Level FlightAware Approximate
Fri 18:37:41 33.6481 -83.9064 84° East 381 705 11.800  Level Atlanta Center
Fri 18:38:00 33.6558 -83.6192 64° Northeast  Level FlightAware Approximate
Fri 18:38:41 33.6603 -83.7667 84° East 401 742 13.600  Level Atlanta Center
Fri 18:39:41 33.6725 -83.6244 84° East 431 798 15.200 1.850 Climbing Atlanta Center
Fri 18:40:41 33.7242 -83.4869 66° East 437 810 17.300 1.950 Climbing Atlanta Center
Fri 18:41:41 33.7797 -83.3514 64° Northeast 442 819 19.100 1.800 Climbing Atlanta Center
Fri 18:42:41 33.8372 -83.2086 64° Northeast 455 843 20.900 1.700 Climbing Atlanta Center
Fri 18:43:41 33.8867 -83.0828 65° Northeast 455 843 22.500 1.500 Climbing Atlanta Center
Fri 18:44:41 33.9436 -82.9369 65° Northeast 468 867 23.900 1.500 Climbing Atlanta Center
Fri 18:45:41 33.9778 -82.7839 75° East 468 867 25.500 1.050 Climbing Atlanta Center
Fri 18:46:41 33.9989 -82.6231 81° East 479 887 26.000 850 Climbing Atlanta Center
Fri 18:47:41 34.0264 -82.4647 78° East 485 898 27.200 1.200 Climbing Atlanta Center
Fri 18:48:41 34.0681 -82.3136 72° East 474 877 28.400 1.300 Climbing Atlanta Center
Fri 18:49:41 34.1306 -82.1717 62° Northeast 469 869 29.800 1.350 Climbing Atlanta Center
Fri 18:50:41 34.1911 -82.0347 62° Northeast 463 858 31.100 1.100 Climbing Atlanta Center
Fri 18:51:41 34.2514 -81.8975 62° Northeast 458 848 32.000 950 Climbing Atlanta Center
Fri 18:52:41 34.3094 -81.7603 63° Northeast 458 848 33.000 500 Climbing Atlanta Center
Fri 18:53:41 34.3717 -81.6253 61° Northeast 453 838 33.000  Level Atlanta Center
Fri 18:54:41 34.4294 -81.4903 63° Northeast 453 838 33.000  Level Atlanta Center
Fri 18:55:41 34.4911 -81.3547 61° Northeast 453 838 33.000  Level Atlanta Center
Fri 18:56:41 34.5633 -81.2161 58° Northeast 453 838 33.000  Level Atlanta Center
Fri 18:57:41 34.6269 -81.0803 60° Northeast 452 837 33.000  Level Atlanta Center
Fri 18:58:41 34.6925 -80.9517 58° Northeast 452 837 33.000  Level Atlanta Center
Fri 18:59:41 34.7581 -80.8203 59° Northeast 447 827 33.000  Level Atlanta Center
Fri 19:00:41 34.8233 -80.6836 60° Northeast 452 837 33.000  Level Atlanta Center
Fri 19:03:05 34.9781 -80.3600 60° Northeast 453 838 33.000  Level Washington Center
Fri 19:04:06 35.0417 -80.2294 59° Northeast 453 838 33.000  Level Washington Center
Fri 19:05:07 35.1050 -80.0983 59° Northeast 453 838 33.000  Level Washington Center
Fri 19:06:05 35.1681 -79.9775 57° Northeast 453 838 33.000  Level Washington Center
Fri 19:07:05 35.2356 -79.8439 58° Northeast 453 838 33.000  Level Washington Center
Fri 19:08:06 35.2986 -79.7122 60° Northeast 453 838 33.000  Level Washington Center
Fri 19:09:07 35.3681 -79.5656 60° Northeast 453 838 33.000  Level Washington Center
Fri 19:10:05 35.4331 -79.4336 59° Northeast 453 838 33.000  Level Washington Center
Fri 19:11:06 35.4978 -79.2964 60° Northeast 458 848 33.000  Level Washington Center
Fri 19:12:06 35.5647 -79.1592 59° Northeast 458 848 33.000  Level Washington Center
Fri 19:13:05 35.6269 -79.0239 60° Northeast 453 838 33.000  Level Washington Center
Fri 19:14:05 35.6892 -78.8858 61° Northeast 453 838 33.000  Level Washington Center
Fri 19:15:06 35.7536 -78.7478 60° Northeast 453 838 33.000  Level Washington Center
Fri 19:16:07 35.8217 -78.6122 58° Northeast 453 838 33.000  Level Washington Center
Fri 19:17:05 35.8856 -78.4711 61° Northeast 458 848 33.000  Level Washington Center
Fri 19:18:06 35.9494 -78.3322 60° Northeast 458 848 33.000  Level Washington Center
Fri 19:19:07 36.0131 -78.1908 61° Northeast 458 848 33.000  Level Washington Center
Fri 19:20:07 36.0767 -78.0489 61° Northeast 458 848 33.000  Level Washington Center
Fri 19:21:06 36.1400 -77.9094 61° Northeast 458 848 33.000  Level Washington Center
Fri 19:22:06 36.2031 -77.7697 61° Northeast 458 848 33.000  Level Washington Center
Fri 19:23:07 36.2681 -77.6247 61° Northeast 458 848 33.000  Level Washington Center
Fri 19:24:05 36.3311 -77.4819 61° Northeast 458 848 33.000  Level Washington Center
Fri 19:25:06 36.3831 -77.3567 63° Northeast 458 848 33.000  Level Washington Center
Fri 19:26:06 36.4475 -77.2136 61° Northeast 458 848 33.000  Level Washington Center
Fri 19:27:06 36.5392 -77.0811 49° Northeast 458 848 33.000  Level Washington Center
Fri 19:28:07 36.6319 -76.9819 41° Northeast 439 813 33.000  Level Washington Center
Fri 19:29:07 36.7292 -76.8825 39° Northeast 439 813 33.000  Level Washington Center
Fri 19:30:05 36.8239 -76.7856 39° Northeast 444 822 33.000  Level Washington Center
Fri 19:31:06 36.9167 -76.6856 41° Northeast 439 813 33.000  Level Washington Center
Fri 19:32:07 37.0114 -76.5856 40° Northeast 439 813 33.000  Level Washington Center
Fri 19:33:05 37.1042 -76.4850 41° Northeast 439 813 33.000  Level Washington Center
Fri 19:34:06 37.1986 -76.3844 40° Northeast 439 813 33.000  Level Washington Center
Fri 19:35:06 37.2931 -76.2836 40° Northeast 439 813 33.000  Level Washington Center
Fri 19:36:06 37.3750 -76.1981 40° Northeast 439 813 33.000  Level Washington Center
Fri 19:37:07 37.4775 -76.0942 39° Northeast 434 803 33.000  Level Washington Center
Fri 19:38:05 37.5697 -75.9981 40° Northeast 428 793 33.000 -51 Level Washington Center
Fri 19:39:05 37.6617 -75.8961 41° Northeast 428 793 32.900  Descending Washington Center
Fri 19:40:06 37.7539 -75.7994 40° Northeast 428 793 33.000 50 Climbing Washington Center
Fri 19:41:06 37.8497 -75.6997 39° Northeast 428 793 33.000  Level Washington Center
Fri 19:42:07 37.9417 -75.5969 41° Northeast 428 793 33.000  Level Washington Center
Fri 19:43:04 38.0375 -75.4969 39° Northeast 428 793 33.000  Level Washington Center
Fri 19:44:05 38.1397 -75.4281 28° Northeast 428 793 33.000 -198 Level Washington Center
Fri 19:45:05 38.2439 -75.3592 27° Northeast 415 769 32.600 -1.091 Descending Washington Center
Fri 19:46:06 38.3478 -75.2978 25° Northeast 410 760 30.800 -1.623 Descending Washington Center
Fri 19:47:07 38.4519 -75.2258 28° Northeast 410 760 29.300 -893 Descending Washington Center
Fri 19:48:07 38.5558 -75.1564 28° Northeast 410 760 29.000 -153 Descending Washington Center
Fri 19:49:05 38.6642 -75.0864 27° Northeast 410 760 29.000  Level Washington Center
Fri 19:50:06 38.7700 -75.0164 27° Northeast 410 760 29.000  Level Washington Center
Fri 19:51:07 38.8697 -74.9278 35° Northeast 421 779 29.000 -504 Level Washington Center
Fri 19:52:05 38.9672 -74.8389 35° Northeast 428 793 28.000 -966 Descending Washington Center
Fri 19:53:05 39.0708 -74.7467 35° Northeast 439 813 27.100 -787 Descending Washington Center
Fri 19:54:07 39.1700 -74.6519 37° Northeast 444 822 26.400 -866 Descending Washington Center
Fri 19:54:42 39.2319 -74.6008 33° Northeast 446 826 25.700 -1.579 Descending New York Center
Fri 19:55:42 39.3331 -74.5072 36° Northeast 482 893 23.900 -2.085 Descending New York Center
Fri 19:56:40 39.4275 -74.4208 35° Northeast 451 835 21.600 -2.350 Descending New York Center
Fri 19:57:42 39.5219 -74.3314 36° Northeast 430 797 19.200 -1.785 Descending New York Center
Fri 19:58:41 39.6142 -74.2444 36° Northeast 403 747 18.000 -850 Descending New York Center
Fri 19:59:42 39.6983 -74.1514 40° Northeast 398 737 17.500 -1.339 Descending New York Center
Fri 20:00:42 39.7717 -74.0686 41° Northeast 392 726 15.300 -2.269 Descending New York Center
Fri 20:01:41 39.8531 -73.9831 39° Northeast 385 713 13.000 -2.186 Descending New York Center
Fri 20:02:40 39.9489 -73.9144 29° Northeast 361 668 11.000 -1.008 Descending New York Center
Fri 20:03:40 40.0272 -73.8611 28° Northeast 333 616 11.000 -99 Level New York Center
Fri 20:04:41 40.0978 -73.8019 33° Northeast 304 563 10.800 -500 Descending New York Center
Fri 20:05:40 40.1594 -73.7531 31° Northeast 293 542 10.000 -1.050 Descending New York Center
Fri 20:06:41 40.2317 -73.6936 32° Northeast 285 528 8.700 -1.231 Descending New York Center
Fri 20:06:58 40.2500 -73.6833 23° Northeast 279 517 8.400 -1.091 Descending New York TRACON
Fri 20:07:58 40.3167 -73.6333 30° Northeast 267 494 7.300 -737 Descending New York TRACON
Fri 20:08:52 40.3833 -73.6000 21° North 261 483 7.000 -150 Descending New York TRACON
Fri 20:09:58 40.4500 -73.5667 21° North 263 488 7.000 -429 Level New York TRACON
Fri 20:10:58 40.5167 -73.5167 30° Northeast 264 489 6.100 -1.200 Descending New York TRACON
Fri 20:11:58 40.5833 -73.4667 30° Northeast 255 472 4.600 -1.050 Descending New York TRACON
Fri 20:12:58 40.6333 -73.4333 27° Northeast 254 470 4.000 -500 Descending New York TRACON
Fri 20:13:58 40.7000 -73.4333 360° North 217 402 3.600 -500 Descending New York TRACON
Fri 20:14:58 40.7500 -73.4833 323° Northwest 215 398 3.000 -650 Descending New York TRACON
Fri 20:15:58 40.7667 -73.5333 294° West 185 343 2.300 -526 Descending New York TRACON
Fri 20:16:52 40.7833 -73.6000 288° West 185 343 2.000 -333 Descending New York TRACON

Login

Don't have an account? Register now (free) for customized features, flight alerts, and more!